sensor_id;sensor_type;location;lat;lon;timestamp;temperature;humidity
13440;DHT22;6792;57.698;11.946;2023-04-03T00:00:18;9.90;36.00
13440;DHT22;6792;57.698;11.946;2023-04-03T00:02:47;9.90;36.10
13440;DHT22;6792;57.698;11.946;2023-04-03T00:05:17;9.90;36.10
13440;DHT22;6792;57.698;11.946;2023-04-03T00:07:48;9.90;36.20
13440;DHT22;6792;57.698;11.946;2023-04-03T00:10:18;9.90;36.30
13440;DHT22;6792;57.698;11.946;2023-04-03T00:12:49;9.90;35.80
13440;DHT22;6792;57.698;11.946;2023-04-03T00:15:19;9.90;36.40
13440;DHT22;6792;57.698;11.946;2023-04-03T00:17:48;9.80;36.30
13440;DHT22;6792;57.698;11.946;2023-04-03T00:20:18;9.80;36.40
13440;DHT22;6792;57.698;11.946;2023-04-03T00:22:47;9.80;36.50
13440;DHT22;6792;57.698;11.946;2023-04-03T00:25:18;9.80;36.50
13440;DHT22;6792;57.698;11.946;2023-04-03T00:27:48;9.80;36.50
13440;DHT22;6792;57.698;11.946;2023-04-03T00:30:19;9.70;36.50
13440;DHT22;6792;57.698;11.946;2023-04-03T00:32:49;9.70;35.90
13440;DHT22;6792;57.698;11.946;2023-04-03T00:35:21;9.70;36.00
13440;DHT22;6792;57.698;11.946;2023-04-03T00:37:51;9.20;35.80
13440;DHT22;6792;57.698;11.946;2023-04-03T00:40:23;9.60;36.10
13440;DHT22;6792;57.698;11.946;2023-04-03T00:42:56;9.60;36.70
13440;DHT22;6792;57.698;11.946;2023-04-03T00:45:33;9.60;36.90
13440;DHT22;6792;57.698;11.946;2023-04-03T00:48:05;9.60;36.90
13440;DHT22;6792;57.698;11.946;2023-04-03T00:50:36;9.50;36.40
13440;DHT22;6792;57.698;11.946;2023-04-03T00:53:07;9.50;37.00
13440;DHT22;6792;57.698;11.946;2023-04-03T00:55:38;9.50;37.00
13440;DHT22;6792;57.698;11.946;2023-04-03T00:58:09;9.50;37.10
13440;DHT22;6792;57.698;11.946;2023-04-03T01:00:41;9.50;37.10
13440;DHT22;6792;57.698;11.946;2023-04-03T01:03:11;9.40;37.10
13440;DHT22;6792;57.698;11.946;2023-04-03T01:05:41;9.40;37.20
13440;DHT22;6792;57.698;11.946;2023-04-03T01:08:10;9.40;37.20
13440;DHT22;6792;57.698;11.946;2023-04-03T01:10:39;9.30;37.20
13440;DHT22;6792;57.698;11.946;2023-04-03T01:13:24;9.30;37.20
13440;DHT22;6792;57.698;11.946;2023-04-03T01:15:54;9.30;36.80
13440;DHT22;6792;57.698;11.946;2023-04-03T01:18:24;9.30;37.40
13440;DHT22;6792;57.698;11.946;2023-04-03T01:24:29;9.20;36.90
13440;DHT22;6792;57.698;11.946;2023-04-03T01:26:59;9.20;37.00
13440;DHT22;6792;57.698;11.946;2023-04-03T01:29:30;9.10;37.60
13440;DHT22;6792;57.698;11.946;2023-04-03T01:32:00;9.10;37.60
13440;DHT22;6792;57.698;11.946;2023-04-03T01:34:30;9.10;37.10
13440;DHT22;6792;57.698;11.946;2023-04-03T01:37:00;9.10;37.70
13440;DHT22;6792;57.698;11.946;2023-04-03T01:39:29;9.10;37.70
13440;DHT22;6792;57.698;11.946;2023-04-03T01:41:58;9.10;37.70
13440;DHT22;6792;57.698;11.946;2023-04-03T01:44:28;9.10;37.80
13440;DHT22;6792;57.698;11.946;2023-04-03T01:46:57;9.10;37.80
13440;DHT22;6792;57.698;11.946;2023-04-03T01:49:26;9.10;37.90
13440;DHT22;6792;57.698;11.946;2023-04-03T01:51:55;9.10;37.80
13440;DHT22;6792;57.698;11.946;2023-04-03T01:54:25;9.10;37.90
13440;DHT22;6792;57.698;11.946;2023-04-03T01:56:54;9.10;37.90
13440;DHT22;6792;57.698;11.946;2023-04-03T01:59:23;9.10;37.90
13440;DHT22;6792;57.698;11.946;2023-04-03T02:01:52;9.10;38.00
13440;DHT22;6792;57.698;11.946;2023-04-03T02:04:22;9.10;38.00
13440;DHT22;6792;57.698;11.946;2023-04-03T02:06:51;9.10;37.50
13440;DHT22;6792;57.698;11.946;2023-04-03T02:09:20;9.10;38.10
13440;DHT22;6792;57.698;11.946;2023-04-03T02:11:50;9.10;38.10
13440;DHT22;6792;57.698;11.946;2023-04-03T02:14:19;9.00;38.10
13440;DHT22;6792;57.698;11.946;2023-04-03T02:16:49;9.00;38.10
13440;DHT22;6792;57.698;11.946;2023-04-03T02:19:18;9.00;38.10
13440;DHT22;6792;57.698;11.946;2023-04-03T02:21:48;9.00;38.20
13440;DHT22;6792;57.698;11.946;2023-04-03T02:24:17;9.00;38.20
13440;DHT22;6792;57.698;11.946;2023-04-03T02:26:46;9.00;38.30
13440;DHT22;6792;57.698;11.946;2023-04-03T02:29:15;9.00;38.30
13440;DHT22;6792;57.698;11.946;2023-04-03T02:31:45;8.90;38.30
13440;DHT22;6792;57.698;11.946;2023-04-03T02:34:14;8.90;38.40
13440;DHT22;6792;57.698;11.946;2023-04-03T02:36:43;9.00;38.40
13440;DHT22;6792;57.698;11.946;2023-04-03T02:39:13;9.00;38.40
13440;DHT22;6792;57.698;11.946;2023-04-03T02:41:42;8.90;37.80
13440;DHT22;6792;57.698;11.946;2023-04-03T02:44:12;8.90;38.40
13440;DHT22;6792;57.698;11.946;2023-04-03T02:46:41;8.90;38.80
13440;DHT22;6792;57.698;11.946;2023-04-03T02:49:10;8.90;38.50
13440;DHT22;6792;57.698;11.946;2023-04-03T02:51:39;8.90;38.40
13440;DHT22;6792;57.698;11.946;2023-04-03T02:54:09;8.80;37.80
13440;DHT22;6792;57.698;11.946;2023-04-03T02:56:38;8.90;38.40
13440;DHT22;6792;57.698;11.946;2023-04-03T02:59:08;8.80;37.80
13440;DHT22;6792;57.698;11.946;2023-04-03T03:01:37;8.80;38.30
13440;DHT22;6792;57.698;11.946;2023-04-03T03:04:06;8.90;38.30
13440;DHT22;6792;57.698;11.946;2023-04-03T03:06:35;8.90;38.40
13440;DHT22;6792;57.698;11.946;2023-04-03T03:09:05;8.80;37.80
13440;DHT22;6792;57.698;11.946;2023-04-03T03:11:34;8.90;38.40
13440;DHT22;6792;57.698;11.946;2023-04-03T03:14:03;8.80;38.40
13440;DHT22;6792;57.698;11.946;2023-04-03T03:16:33;8.80;38.30
13440;DHT22;6792;57.698;11.946;2023-04-03T03:19:02;8.80;37.80
13440;DHT22;6792;57.698;11.946;2023-04-03T03:21:31;8.80;38.40
13440;DHT22;6792;57.698;11.946;2023-04-03T03:24:00;8.80;38.40
13440;DHT22;6792;57.698;11.946;2023-04-03T03:26:30;8.80;38.40
13440;DHT22;6792;57.698;11.946;2023-04-03T03:28:59;8.70;38.40
13440;DHT22;6792;57.698;11.946;2023-04-03T03:31:28;8.70;38.40
13440;DHT22;6792;57.698;11.946;2023-04-03T03:33:58;8.70;38.50
13440;DHT22;6792;57.698;11.946;2023-04-03T03:36:27;8.70;38.50
13440;DHT22;6792;57.698;11.946;2023-04-03T03:38:56;8.70;38.60
13440;DHT22;6792;57.698;11.946;2023-04-03T03:41:28;8.70;38.50
13440;DHT22;6792;57.698;11.946;2023-04-03T03:43:57;8.70;38.60
13440;DHT22;6792;57.698;11.946;2023-04-03T03:46:27;8.70;38.50
13440;DHT22;6792;57.698;11.946;2023-04-03T03:48:56;8.70;38.50
13440;DHT22;6792;57.698;11.946;2023-04-03T03:51:25;8.70;38.60
13440;DHT22;6792;57.698;11.946;2023-04-03T03:53:56;8.70;38.70
13440;DHT22;6792;57.698;11.946;2023-04-03T03:56:25;8.60;38.00
13440;DHT22;6792;57.698;11.946;2023-04-03T03:58:54;8.60;38.00
13440;DHT22;6792;57.698;11.946;2023-04-03T04:01:24;8.70;38.60
13440;DHT22;6792;57.698;11.946;2023-04-03T04:03:54;8.70;38.50
13440;DHT22;6792;57.698;11.946;2023-04-03T04:06:24;8.60;37.90
13440;DHT22;6792;57.698;11.946;2023-04-03T04:08:53;8.60;38.50
13440;DHT22;6792;57.698;11.946;2023-04-03T04:11:22;8.60;38.00
13440;DHT22;6792;57.698;11.946;2023-04-03T04:13:52;8.60;38.60
13440;DHT22;6792;57.698;11.946;2023-04-03T04:16:22;8.60;38.60
13440;DHT22;6792;57.698;11.946;2023-04-03T04:18:51;8.60;38.60
13440;DHT22;6792;57.698;11.946;2023-04-03T04:21:20;8.60;38.60
13440;DHT22;6792;57.698;11.946;2023-04-03T04:23:49;8.50;38.50
13440;DHT22;6792;57.698;11.946;2023-04-03T04:26:19;8.50;38.50
13440;DHT22;6792;57.698;11.946;2023-04-03T04:28:48;8.40;38.00
13440;DHT22;6792;57.698;11.946;2023-04-03T04:31:18;8.40;38.10
13440;DHT22;6792;57.698;11.946;2023-04-03T04:33:47;8.40;39.40
13440;DHT22;6792;57.698;11.946;2023-04-03T04:36:16;8.40;39.00
13440;DHT22;6792;57.698;11.946;2023-04-03T04:38:45;8.40;38.90
13440;DHT22;6792;57.698;11.946;2023-04-03T04:41:15;8.40;39.00
13440;DHT22;6792;57.698;11.946;2023-04-03T04:43:45;8.40;39.00
13440;DHT22;6792;57.698;11.946;2023-04-03T04:46:14;8.40;39.00
13440;DHT22;6792;57.698;11.946;2023-04-03T04:48:44;8.40;39.00
13440;DHT22;6792;57.698;11.946;2023-04-03T04:51:14;8.40;39.00
13440;DHT22;6792;57.698;11.946;2023-04-03T04:53:43;8.40;38.50
13440;DHT22;6792;57.698;11.946;2023-04-03T04:56:13;8.40;39.10
13440;DHT22;6792;57.698;11.946;2023-04-03T04:58:42;8.40;39.10
13440;DHT22;6792;57.698;11.946;2023-04-03T05:03:40;8.40;38.60
13440;DHT22;6792;57.698;11.946;2023-04-03T05:06:09;8.40;39.10
13440;DHT22;6792;57.698;11.946;2023-04-03T05:08:39;8.40;39.10
13440;DHT22;6792;57.698;11.946;2023-04-03T05:11:08;8.40;38.50
13440;DHT22;6792;57.698;11.946;2023-04-03T05:13:37;8.40;39.10
13440;DHT22;6792;57.698;11.946;2023-04-03T05:16:07;8.40;39.10
13440;DHT22;6792;57.698;11.946;2023-04-03T05:18:36;8.40;39.10
13440;DHT22;6792;57.698;11.946;2023-04-03T05:21:06;8.40;39.10
13440;DHT22;6792;57.698;11.946;2023-04-03T05:23:35;8.40;39.10
13440;DHT22;6792;57.698;11.946;2023-04-03T05:26:04;8.40;39.10
13440;DHT22;6792;57.698;11.946;2023-04-03T05:28:36;8.50;39.10
13440;DHT22;6792;57.698;11.946;2023-04-03T05:31:05;8.50;39.10
13440;DHT22;6792;57.698;11.946;2023-04-03T05:33:35;8.50;39.10
13440;DHT22;6792;57.698;11.946;2023-04-03T05:36:05;8.50;39.00
13440;DHT22;6792;57.698;11.946;2023-04-03T05:38:34;8.50;39.00
13440;DHT22;6792;57.698;11.946;2023-04-03T05:41:04;8.50;39.10
13440;DHT22;6792;57.698;11.946;2023-04-03T05:43:33;8.50;39.10
13440;DHT22;6792;57.698;11.946;2023-04-03T05:46:04;8.50;39.10
13440;DHT22;6792;57.698;11.946;2023-04-03T05:48:35;8.50;39.10
13440;DHT22;6792;57.698;11.946;2023-04-03T05:51:09;8.50;39.20
13440;DHT22;6792;57.698;11.946;2023-04-03T05:53:40;8.40;38.60
13440;DHT22;6792;57.698;11.946;2023-04-03T05:56:09;8.40;39.20
13440;DHT22;6792;57.698;11.946;2023-04-03T05:58:39;8.40;39.30
13440;DHT22;6792;57.698;11.946;2023-04-03T06:01:08;8.40;39.30
13440;DHT22;6792;57.698;11.946;2023-04-03T06:03:37;8.40;39.40
13440;DHT22;6792;57.698;11.946;2023-04-03T06:06:07;8.40;38.90
13440;DHT22;6792;57.698;11.946;2023-04-03T06:08:37;8.50;39.50
13440;DHT22;6792;57.698;11.946;2023-04-03T06:11:06;8.50;39.40
13440;DHT22;6792;57.698;11.946;2023-04-03T06:13:36;8.60;39.40
13440;DHT22;6792;57.698;11.946;2023-04-03T06:18:47;8.60;38.90
13440;DHT22;6792;57.698;11.946;2023-04-03T06:21:16;8.60;39.50
13440;DHT22;6792;57.698;11.946;2023-04-03T06:23:45;8.70;39.30
13440;DHT22;6792;57.698;11.946;2023-04-03T06:26:15;8.70;39.30
13440;DHT22;6792;57.698;11.946;2023-04-03T06:28:44;8.70;39.20
13440;DHT22;6792;57.698;11.946;2023-04-03T06:31:13;8.70;39.10
13440;DHT22;6792;57.698;11.946;2023-04-03T06:33:43;8.80;39.10
13440;DHT22;6792;57.698;11.946;2023-04-03T06:36:13;8.90;39.00
13440;DHT22;6792;57.698;11.946;2023-04-03T06:38:43;8.90;38.90
13440;DHT22;6792;57.698;11.946;2023-04-03T06:41:13;9.00;38.80
13440;DHT22;6792;57.698;11.946;2023-04-03T06:43:42;9.00;38.90
13440;DHT22;6792;57.698;11.946;2023-04-03T06:46:15;9.10;38.80
13440;DHT22;6792;57.698;11.946;2023-04-03T06:48:45;9.20;38.70
13440;DHT22;6792;57.698;11.946;2023-04-03T06:51:22;9.60;38.20
13440;DHT22;6792;57.698;11.946;2023-04-03T06:53:53;9.30;38.70
13440;DHT22;6792;57.698;11.946;2023-04-03T06:56:23;9.30;37.90
13440;DHT22;6792;57.698;11.946;2023-04-03T06:58:53;9.40;38.40
13440;DHT22;6792;57.698;11.946;2023-04-03T07:01:25;9.50;38.30
13440;DHT22;6792;57.698;11.946;2023-04-03T07:03:55;9.50;38.30
13440;DHT22;6792;57.698;11.946;2023-04-03T07:06:25;9.60;38.20
13440;DHT22;6792;57.698;11.946;2023-04-03T07:08:55;9.60;38.10
13440;DHT22;6792;57.698;11.946;2023-04-03T07:11:25;9.70;38.10
13440;DHT22;6792;57.698;11.946;2023-04-03T07:13:54;9.70;38.00
13440;DHT22;6792;57.698;11.946;2023-04-03T07:16:24;9.70;37.40
13440;DHT22;6792;57.698;11.946;2023-04-03T07:18:53;9.80;38.00
13440;DHT22;6792;57.698;11.946;2023-04-03T07:21:22;9.90;37.90
13440;DHT22;6792;57.698;11.946;2023-04-03T07:23:52;9.90;37.20
13440;DHT22;6792;57.698;11.946;2023-04-03T07:26:21;10.00;37.20
13440;DHT22;6792;57.698;11.946;2023-04-03T07:28:51;10.00;37.70
13440;DHT22;6792;57.698;11.946;2023-04-03T07:31:20;10.00;37.60
13440;DHT22;6792;57.698;11.946;2023-04-03T07:33:53;10.10;37.60
13440;DHT22;6792;57.698;11.946;2023-04-03T07:36:23;10.10;37.50
13440;DHT22;6792;57.698;11.946;2023-04-03T07:38:53;10.20;36.90
13440;DHT22;6792;57.698;11.946;2023-04-03T07:41:22;10.20;37.40
13440;DHT22;6792;57.698;11.946;2023-04-03T07:43:51;10.20;37.30
13440;DHT22;6792;57.698;11.946;2023-04-03T07:46:20;10.30;37.20
13440;DHT22;6792;57.698;11.946;2023-04-03T07:48:50;10.30;37.20
13440;DHT22;6792;57.698;11.946;2023-04-03T07:51:19;10.40;37.10
13440;DHT22;6792;57.698;11.946;2023-04-03T07:53:48;10.40;37.00
13440;DHT22;6792;57.698;11.946;2023-04-03T07:56:17;10.50;36.40
13440;DHT22;6792;57.698;11.946;2023-04-03T07:58:51;10.50;36.90
13440;DHT22;6792;57.698;11.946;2023-04-03T08:01:21;10.50;36.20
13440;DHT22;6792;57.698;11.946;2023-04-03T08:03:50;10.60;36.80
13440;DHT22;6792;57.698;11.946;2023-04-03T08:06:19;10.60;36.70
13440;DHT22;6792;57.698;11.946;2023-04-03T08:08:49;10.70;36.60
13440;DHT22;6792;57.698;11.946;2023-04-03T08:11:18;10.70;36.50
13440;DHT22;6792;57.698;11.946;2023-04-03T08:13:48;10.80;36.40
13440;DHT22;6792;57.698;11.946;2023-04-03T08:16:20;10.80;36.40
13440;DHT22;6792;57.698;11.946;2023-04-03T08:18:50;10.90;36.20
13440;DHT22;6792;57.698;11.946;2023-04-03T08:21:19;10.90;36.10
13440;DHT22;6792;57.698;11.946;2023-04-03T08:23:50;11.00;36.00
13440;DHT22;6792;57.698;11.946;2023-04-03T08:26:20;11.10;35.90
13440;DHT22;6792;57.698;11.946;2023-04-03T08:28:50;11.10;35.70
13440;DHT22;6792;57.698;11.946;2023-04-03T08:31:20;11.10;35.00
13440;DHT22;6792;57.698;11.946;2023-04-03T08:33:50;11.20;35.60
13440;DHT22;6792;57.698;11.946;2023-04-03T08:36:21;11.30;35.50
13440;DHT22;6792;57.698;11.946;2023-04-03T08:38:51;11.40;35.40
13440;DHT22;6792;57.698;11.946;2023-04-03T08:41:26;11.40;35.30
13440;DHT22;6792;57.698;11.946;2023-04-03T08:44:19;11.50;34.60
13440;DHT22;6792;57.698;11.946;2023-04-03T08:47:02;11.50;35.00
13440;DHT22;6792;57.698;11.946;2023-04-03T08:49:33;11.50;34.80
13440;DHT22;6792;57.698;11.946;2023-04-03T08:52:08;11.50;34.70
13440;DHT22;6792;57.698;11.946;2023-04-03T08:54:44;11.50;34.60
13440;DHT22;6792;57.698;11.946;2023-04-03T08:57:12;11.50;34.50
13440;DHT22;6792;57.698;11.946;2023-04-03T08:59:43;11.50;34.30
13440;DHT22;6792;57.698;11.946;2023-04-03T09:02:25;11.50;33.60
13440;DHT22;6792;57.698;11.946;2023-04-03T09:04:55;11.60;34.10
13440;DHT22;6792;57.698;11.946;2023-04-03T09:07:31;11.70;34.10
13440;DHT22;6792;57.698;11.946;2023-04-03T09:09:58;11.70;33.90
13440;DHT22;6792;57.698;11.946;2023-04-03T09:12:33;11.80;33.70
13440;DHT22;6792;57.698;11.946;2023-04-03T09:15:08;11.80;33.60
13440;DHT22;6792;57.698;11.946;2023-04-03T09:17:43;11.90;33.50
13440;DHT22;6792;57.698;11.946;2023-04-03T09:20:19;12.00;33.40
13440;DHT22;6792;57.698;11.946;2023-04-03T09:22:48;12.00;33.20
13440;DHT22;6792;57.698;11.946;2023-04-03T09:25:20;12.10;33.10
13440;DHT22;6792;57.698;11.946;2023-04-03T09:27:51;12.10;32.90
13440;DHT22;6792;57.698;11.946;2023-04-03T09:30:22;12.10;32.70
13440;DHT22;6792;57.698;11.946;2023-04-03T09:32:53;12.20;32.70
13440;DHT22;6792;57.698;11.946;2023-04-03T09:35:25;12.20;32.50
13440;DHT22;6792;57.698;11.946;2023-04-03T09:37:58;12.30;32.40
13440;DHT22;6792;57.698;11.946;2023-04-03T09:40:32;12.30;32.30
13440;DHT22;6792;57.698;11.946;2023-04-03T09:43:21;12.40;32.30
13440;DHT22;6792;57.698;11.946;2023-04-03T09:45:52;12.40;31.50
13440;DHT22;6792;57.698;11.946;2023-04-03T09:48:22;12.40;32.20
13440;DHT22;6792;57.698;11.946;2023-04-03T09:50:57;12.50;32.30
13440;DHT22;6792;57.698;11.946;2023-04-03T09:53:33;12.50;32.00
13440;DHT22;6792;57.698;11.946;2023-04-03T09:56:18;12.60;32.10
13440;DHT22;6792;57.698;11.946;2023-04-03T09:58:40;12.60;31.80
13440;DHT22;6792;57.698;11.946;2023-04-03T10:01:21;12.60;31.10
13440;DHT22;6792;57.698;11.946;2023-04-03T10:04:08;12.70;31.10
13440;DHT22;6792;57.698;11.946;2023-04-03T10:06:40;12.70;31.60
13440;DHT22;6792;57.698;11.946;2023-04-03T10:09:20;12.70;31.60
13440;DHT22;6792;57.698;11.946;2023-04-03T10:12:00;12.70;31.60
13440;DHT22;6792;57.698;11.946;2023-04-03T10:14:30;12.70;31.60
13440;DHT22;6792;57.698;11.946;2023-04-03T10:17:05;12.80;31.60
13440;DHT22;6792;57.698;11.946;2023-04-03T10:19:39;12.80;31.40
13440;DHT22;6792;57.698;11.946;2023-04-03T10:22:18;12.90;31.40
13440;DHT22;6792;57.698;11.946;2023-04-03T10:24:59;12.90;31.20
13440;DHT22;6792;57.698;11.946;2023-04-03T10:27:37;12.90;31.20
13440;DHT22;6792;57.698;11.946;2023-04-03T10:30:17;12.90;30.60
13440;DHT22;6792;57.698;11.946;2023-04-03T10:32:57;13.00;30.50
13440;DHT22;6792;57.698;11.946;2023-04-03T10:35:39;13.00;31.20
13440;DHT22;6792;57.698;11.946;2023-04-03T10:38:13;13.00;30.50
13440;DHT22;6792;57.698;11.946;2023-04-03T10:40:49;13.10;31.10
13440;DHT22;6792;57.698;11.946;2023-04-03T10:43:23;13.10;30.50
13440;DHT22;6792;57.698;11.946;2023-04-03T10:45:57;13.10;31.10
13440;DHT22;6792;57.698;11.946;2023-04-03T10:48:35;13.10;31.00
13440;DHT22;6792;57.698;11.946;2023-04-03T10:51:12;13.10;30.90
13440;DHT22;6792;57.698;11.946;2023-04-03T10:53:45;13.20;30.90
13440;DHT22;6792;57.698;11.946;2023-04-03T10:56:18;13.20;30.30
13440;DHT22;6792;57.698;11.946;2023-04-03T10:58:53;13.20;30.80
13440;DHT22;6792;57.698;11.946;2023-04-03T11:01:26;13.10;30.80
13440;DHT22;6792;57.698;11.946;2023-04-03T11:03:58;13.10;30.80
13440;DHT22;6792;57.698;11.946;2023-04-03T11:06:32;13.10;30.90
13440;DHT22;6792;57.698;11.946;2023-04-03T11:09:05;13.10;30.80
13440;DHT22;6792;57.698;11.946;2023-04-03T11:11:36;13.10;30.20
13440;DHT22;6792;57.698;11.946;2023-04-03T11:14:11;13.10;30.80
13440;DHT22;6792;57.698;11.946;2023-04-03T11:16:45;13.10;30.20
13440;DHT22;6792;57.698;11.946;2023-04-03T11:19:18;13.10;30.80
13440;DHT22;6792;57.698;11.946;2023-04-03T11:21:56;13.10;30.30
13440;DHT22;6792;57.698;11.946;2023-04-03T11:24:27;13.20;30.90
13440;DHT22;6792;57.698;11.946;2023-04-03T11:27:00;13.30;30.90
13440;DHT22;6792;57.698;11.946;2023-04-03T11:29:34;13.30;30.90
13440;DHT22;6792;57.698;11.946;2023-04-03T11:35:02;13.50;31.00
13440;DHT22;6792;57.698;11.946;2023-04-03T11:37:35;13.50;30.30
13440;DHT22;6792;57.698;11.946;2023-04-03T11:40:08;13.60;30.90
13440;DHT22;6792;57.698;11.946;2023-04-03T11:42:40;13.70;30.30
13440;DHT22;6792;57.698;11.946;2023-04-03T11:45:27;13.70;30.80
13440;DHT22;6792;57.698;11.946;2023-04-03T11:47:58;13.70;30.10
13440;DHT22;6792;57.698;11.946;2023-04-03T11:50:43;13.70;30.80
13440;DHT22;6792;57.698;11.946;2023-04-03T11:53:34;13.80;30.10
13440;DHT22;6792;57.698;11.946;2023-04-03T11:56:28;13.80;30.00
13440;DHT22;6792;57.698;11.946;2023-04-03T11:59:23;13.80;30.70
13440;DHT22;6792;57.698;11.946;2023-04-03T12:01:53;13.90;30.60
13440;DHT22;6792;57.698;11.946;2023-04-03T12:04:24;13.90;30.70
13440;DHT22;6792;57.698;11.946;2023-04-03T12:07:11;14.00;30.50
13440;DHT22;6792;57.698;11.946;2023-04-03T12:10:15;14.20;30.00
13440;DHT22;6792;57.698;11.946;2023-04-03T12:12:56;14.30;29.90
13440;DHT22;6792;57.698;11.946;2023-04-03T12:15:48;14.50;29.90
13440;DHT22;6792;57.698;11.946;2023-04-03T12:18:59;14.70;30.30
13440;DHT22;6792;57.698;11.946;2023-04-03T12:22:08;14.90;29.60
13440;DHT22;6792;57.698;11.946;2023-04-03T12:24:39;15.00;29.50
13440;DHT22;6792;57.698;11.946;2023-04-03T12:27:23;15.00;29.70
13440;DHT22;6792;57.698;11.946;2023-04-03T12:30:04;15.10;29.50
13440;DHT22;6792;57.698;11.946;2023-04-03T12:32:56;15.20;29.40
13440;DHT22;6792;57.698;11.946;2023-04-03T12:35:26;15.30;29.80
13440;DHT22;6792;57.698;11.946;2023-04-03T12:38:22;15.50;29.80
13440;DHT22;6792;57.698;11.946;2023-04-03T12:40:56;15.70;29.80
13440;DHT22;6792;57.698;11.946;2023-04-03T12:43:43;15.80;29.70
13440;DHT22;6792;57.698;11.946;2023-04-03T12:46:15;15.90;29.10
13440;DHT22;6792;57.698;11.946;2023-04-03T12:48:50;16.10;29.60
13440;DHT22;6792;57.698;11.946;2023-04-03T12:51:26;16.20;29.40
13440;DHT22;6792;57.698;11.946;2023-04-03T12:53:56;16.30;28.80
13440;DHT22;6792;57.698;11.946;2023-04-03T12:56:27;16.50;29.20
13440;DHT22;6792;57.698;11.946;2023-04-03T12:59:13;16.60;28.60
13440;DHT22;6792;57.698;11.946;2023-04-03T13:01:42;16.80;29.00
13440;DHT22;6792;57.698;11.946;2023-04-03T13:04:12;16.90;28.30
13440;DHT22;6792;57.698;11.946;2023-04-03T13:06:43;17.20;28.60
13440;DHT22;6792;57.698;11.946;2023-04-03T13:09:21;17.30;28.40
13440;DHT22;6792;57.698;11.946;2023-04-03T13:11:54;17.60;27.80
13440;DHT22;6792;57.698;11.946;2023-04-03T13:14:24;17.80;27.60
13440;DHT22;6792;57.698;11.946;2023-04-03T13:16:58;18.20;27.90
13440;DHT22;6792;57.698;11.946;2023-04-03T13:19:28;18.70;27.60
13440;DHT22;6792;57.698;11.946;2023-04-03T13:22:03;19.20;27.20
13440;DHT22;6792;57.698;11.946;2023-04-03T13:24:35;19.70;26.70
13440;DHT22;6792;57.698;11.946;2023-04-03T13:27:06;20.10;26.30
13440;DHT22;6792;57.698;11.946;2023-04-03T13:29:37;20.50;26.00
13440;DHT22;6792;57.698;11.946;2023-04-03T13:32:07;21.00;25.60
13440;DHT22;6792;57.698;11.946;2023-04-03T13:34:40;21.50;25.20
13440;DHT22;6792;57.698;11.946;2023-04-03T13:37:21;21.90;24.80
13440;DHT22;6792;57.698;11.946;2023-04-03T13:40:00;22.20;23.80
13440;DHT22;6792;57.698;11.946;2023-04-03T13:42:32;22.40;24.10
13440;DHT22;6792;57.698;11.946;2023-04-03T13:45:21;22.70;23.80
13440;DHT22;6792;57.698;11.946;2023-04-03T13:47:52;22.80;22.90
13440;DHT22;6792;57.698;11.946;2023-04-03T13:50:25;22.90;23.50
13440;DHT22;6792;57.698;11.946;2023-04-03T13:52:59;23.10;23.40
13440;DHT22;6792;57.698;11.946;2023-04-03T13:55:28;23.20;22.60
13440;DHT22;6792;57.698;11.946;2023-04-03T13:58:01;23.30;23.00
13440;DHT22;6792;57.698;11.946;2023-04-03T14:00:47;23.30;22.70
13440;DHT22;6792;57.698;11.946;2023-04-03T14:03:14;23.10;22.60
13440;DHT22;6792;57.698;11.946;2023-04-03T14:05:44;22.70;22.50
13440;DHT22;6792;57.698;11.946;2023-04-03T14:08:14;22.10;22.60
13440;DHT22;6792;57.698;11.946;2023-04-03T14:10:44;21.50;22.90
13440;DHT22;6792;57.698;11.946;2023-04-03T14:13:17;21.00;23.10
13440;DHT22;6792;57.698;11.946;2023-04-03T14:15:47;20.50;23.40
13440;DHT22;6792;57.698;11.946;2023-04-03T14:18:20;20.00;23.60
13440;DHT22;6792;57.698;11.946;2023-04-03T14:20:50;19.60;23.50
13440;DHT22;6792;57.698;11.946;2023-04-03T14:23:20;19.20;24.20
13440;DHT22;6792;57.698;11.946;2023-04-03T14:25:49;18.80;24.50
13440;DHT22;6792;57.698;11.946;2023-04-03T14:28:20;18.40;24.70
13440;DHT22;6792;57.698;11.946;2023-04-03T14:30:51;18.10;24.90
13440;DHT22;6792;57.698;11.946;2023-04-03T14:33:22;17.80;24.80
13440;DHT22;6792;57.698;11.946;2023-04-03T14:35:51;17.60;25.50
13440;DHT22;6792;57.698;11.946;2023-04-03T14:38:27;17.30;25.60
13440;DHT22;6792;57.698;11.946;2023-04-03T14:40:57;17.10;25.80
13440;DHT22;6792;57.698;11.946;2023-04-03T14:43:27;16.90;26.10
13440;DHT22;6792;57.698;11.946;2023-04-03T14:45:56;16.70;26.10
13440;DHT22;6792;57.698;11.946;2023-04-03T14:48:27;16.60;26.30
13440;DHT22;6792;57.698;11.946;2023-04-03T14:50:56;16.40;26.40
13440;DHT22;6792;57.698;11.946;2023-04-03T14:53:26;16.20;26.50
13440;DHT22;6792;57.698;11.946;2023-04-03T14:55:57;16.00;26.60
13440;DHT22;6792;57.698;11.946;2023-04-03T14:58:26;15.90;26.80
13440;DHT22;6792;57.698;11.946;2023-04-03T15:00:56;15.70;26.50
13440;DHT22;6792;57.698;11.946;2023-04-03T15:03:26;15.50;26.60
13440;DHT22;6792;57.698;11.946;2023-04-03T15:05:57;15.40;27.20
13440;DHT22;6792;57.698;11.946;2023-04-03T15:08:28;15.30;27.30
13440;DHT22;6792;57.698;11.946;2023-04-03T15:10:58;15.20;27.50
13440;DHT22;6792;57.698;11.946;2023-04-03T15:13:28;15.10;27.70
13440;DHT22;6792;57.698;11.946;2023-04-03T15:15:58;15.00;27.70
13440;DHT22;6792;57.698;11.946;2023-04-03T15:18:28;14.90;27.80
13440;DHT22;6792;57.698;11.946;2023-04-03T15:20:58;14.80;28.00
13440;DHT22;6792;57.698;11.946;2023-04-03T15:23:28;14.80;28.10
13440;DHT22;6792;57.698;11.946;2023-04-03T15:25:57;14.70;28.20
13440;DHT22;6792;57.698;11.946;2023-04-03T15:28:28;14.60;28.30
13440;DHT22;6792;57.698;11.946;2023-04-03T15:30:59;14.50;28.30
13440;DHT22;6792;57.698;11.946;2023-04-03T15:33:31;14.50;28.40
13440;DHT22;6792;57.698;11.946;2023-04-03T15:36:01;14.40;28.40
13440;DHT22;6792;57.698;11.946;2023-04-03T15:41:09;14.30;28.40
13440;DHT22;6792;57.698;11.946;2023-04-03T15:43:38;14.20;28.00
13440;DHT22;6792;57.698;11.946;2023-04-03T15:46:07;14.10;28.40
13440;DHT22;6792;57.698;11.946;2023-04-03T15:48:37;14.10;28.40
13440;DHT22;6792;57.698;11.946;2023-04-03T15:51:07;14.00;28.40
13440;DHT22;6792;57.698;11.946;2023-04-03T15:53:36;14.00;28.40
13440;DHT22;6792;57.698;11.946;2023-04-03T15:56:06;13.90;28.40
13440;DHT22;6792;57.698;11.946;2023-04-03T15:58:37;13.90;28.50
13440;DHT22;6792;57.698;11.946;2023-04-03T16:01:08;13.80;28.50
13440;DHT22;6792;57.698;11.946;2023-04-03T16:03:40;13.80;29.10
13440;DHT22;6792;57.698;11.946;2023-04-03T16:06:11;13.70;28.70
13440;DHT22;6792;57.698;11.946;2023-04-03T16:08:41;13.70;28.70
13440;DHT22;6792;57.698;11.946;2023-04-03T16:11:10;13.60;28.30
13440;DHT22;6792;57.698;11.946;2023-04-03T16:13:40;13.60;28.90
13440;DHT22;6792;57.698;11.946;2023-04-03T16:16:10;13.60;28.90
13440;DHT22;6792;57.698;11.946;2023-04-03T16:18:39;13.60;29.50
13440;DHT22;6792;57.698;11.946;2023-04-03T16:21:09;13.60;29.10